createdAt,value
2022-08-05T04:42:25.272Z,97090.06
2022-08-05T04:44:53.508Z,97082.59
2022-08-05T04:56:33.839Z,97085.88
2022-08-05T04:58:28.659Z,97090.41
2022-08-05T05:00:57.576Z,97080.81
2022-08-05T05:03:25.241Z,97084.81
2022-08-05T05:06:36.507Z,97081.31
2022-08-05T05:08:50.045Z,97082.13
2022-08-05T05:11:18.005Z,97079.75
2022-08-05T05:13:48.622Z,97080.78
2022-08-05T05:16:16.306Z,97078.66
2022-08-05T05:19:16.341Z,97077.00
2022-08-05T05:21:35.398Z,97075.38
2022-08-05T05:24:08.929Z,97081.94
2022-08-05T05:26:36.963Z,97084.19
2022-08-05T05:29:14.282Z,97082.97
2022-08-05T05:31:42.955Z,97085.56
2022-08-05T05:34:14.072Z,97075.53
2022-08-05T05:36:48.520Z,97073.22
2022-08-05T05:39:19.343Z,97085.75
2022-08-05T05:41:54.430Z,97083.22
2022-08-05T05:44:36.338Z,97090.06
2022-08-05T05:47:13.316Z,97085.75
2022-08-05T05:49:52.542Z,97083.22
2022-08-05T05:52:28.363Z,97087.63
2022-08-05T05:55:00.829Z,97080.53
2022-08-05T05:57:51.939Z,97076.09
2022-08-05T06:00:19.151Z,97077.25
2022-08-05T06:02:47.823Z,97076.44
2022-08-05T06:05:16.950Z,97090.00
2022-08-05T06:08:01.156Z,97081.56
2022-08-05T06:10:37.477Z,97080.44
2022-08-05T06:13:17.316Z,97085.38
2022-08-05T06:16:30.333Z,97086.63
2022-08-05T06:18:33.419Z,97091.72
2022-08-05T06:21:08.048Z,97085.66
2022-08-05T06:23:46.385Z,97094.63
2022-08-05T06:26:21.508Z,97087.50
2022-08-05T06:28:51.889Z,97094.03
2022-08-05T06:31:19.549Z,97094.28
2022-08-05T06:34:07.859Z,97090.44
2022-08-05T06:36:53.527Z,97100.41
2022-08-05T06:39:27.231Z,97093.31
2022-08-05T06:42:01.514Z,97093.50
2022-08-05T06:44:32.469Z,97095.84
2022-08-05T06:47:02.140Z,97092.06
2022-08-05T06:50:00.101Z,97092.91
2022-08-05T06:52:37.690Z,97093.53
2022-08-05T06:55:08.003Z,97092.91
2022-08-05T06:58:03.836Z,97091.63
2022-08-05T07:00:25.564Z,97083.06
2022-08-05T07:02:54.216Z,97082.22
2022-08-05T07:05:36.869Z,97083.06
2022-08-05T07:08:05.393Z,97082.94
2022-08-05T07:10:33.149Z,97071.72
2022-08-05T07:13:57.183Z,97079.09
2022-08-05T07:17:56.887Z,97084.88
2022-08-05T07:19:16.047Z,97082.84
2022-08-05T07:22:02.744Z,97081.25
2022-08-05T07:24:30.404Z,97081.03
2022-08-05T07:26:59.276Z,97073.16
2022-08-05T07:30:22.871Z,97080.75
2022-08-05T07:32:15.007Z,97080.59
2022-08-05T07:34:42.629Z,97083.06
2022-08-05T07:37:11.589Z,97078.94
2022-08-05T07:40:26.213Z,97078.47
2022-08-05T07:42:31.840Z,97080.34
2022-08-05T07:45:01.857Z,97077.22
2022-08-05T07:47:31.143Z,97071.63
2022-08-05T07:50:10.693Z,97075.09
2022-08-05T07:52:41.335Z,97077.09
2022-08-05T07:55:15.887Z,97069.97
2022-08-05T07:58:03.100Z,97074.84
2022-08-05T08:00:32.019Z,97078.88
2022-08-05T08:03:15.124Z,97077.63
2022-08-05T08:05:47.630Z,97069.00
2022-08-05T08:08:20.049Z,97079.78
2022-08-05T08:10:48.849Z,97080.44
2022-08-05T08:13:21.941Z,97078.94
2022-08-05T08:16:35.841Z,97076.19
2022-08-05T08:18:50.102Z,97083.69
2022-08-05T08:21:18.371Z,97077.44
2022-08-05T08:24:01.238Z,97073.53
2022-08-05T08:26:32.860Z,97077.84
2022-08-05T08:29:21.521Z,97082.13
2022-08-05T08:31:48.752Z,97084.16
2022-08-05T08:34:30.808Z,97078.91
2022-08-05T08:37:04.653Z,97072.47
2022-08-05T08:39:37.393Z,97069.94
2022-08-05T08:42:22.462Z,97069.72
2022-08-05T08:45:19.418Z,97072.47
2022-08-05T08:48:05.836Z,97069.75
2022-08-05T08:51:03.563Z,97064.81
2022-08-05T08:53:18.792Z,97065.28
2022-08-05T08:56:04.048Z,97061.53
2022-08-05T08:58:43.454Z,97059.84
2022-08-05T09:01:17.366Z,97060.19
2022-08-05T09:03:57.261Z,97053.38
2022-08-05T09:06:29.318Z,97054.00
2022-08-05T09:09:01.624Z,97051.78
2022-08-05T09:11:52.006Z,97048.59
2022-08-05T09:14:57.859Z,97048.97
2022-08-05T09:17:40.188Z,97042.59
2022-08-05T09:20:02.310Z,97043.28
2022-08-05T09:23:09.139Z,97037.28
2022-08-05T09:26:02.613Z,97028.03
2022-08-05T09:28:32.032Z,97035.91
2022-08-05T09:31:22.252Z,97029.97
2022-08-05T09:33:58.686Z,97021.13
2022-08-05T09:36:55.300Z,97023.56
2022-08-05T09:39:39.409Z,97023.47
2022-08-05T09:42:20.201Z,97016.03
2022-08-05T09:44:56.310Z,97021.00
2022-08-05T09:47:36.314Z,97013.16
2022-08-05T09:50:18.166Z,97012.50
2022-08-05T09:53:03.100Z,97013.47
2022-08-05T09:55:57.130Z,97014.94
2022-08-05T09:58:23.659Z,97006.81
2022-08-05T10:01:15.267Z,97002.22
2022-08-05T10:04:00.218Z,97004.00
2022-08-05T10:06:29.527Z,97004.56
2022-08-05T10:09:29.497Z,97007.66
2022-08-05T10:12:30.591Z,96999.56
2022-08-05T10:15:13.267Z,97004.53
2022-08-05T10:17:54.423Z,96993.28
2022-08-05T10:20:25.067Z,96998.94
2022-08-05T10:22:52.936Z,96994.84
2022-08-05T10:25:21.088Z,96991.06
2022-08-05T10:28:13.360Z,96995.44
2022-08-05T10:31:21.066Z,96996.84
2022-08-05T10:33:29.070Z,96990.47
2022-08-05T10:35:59.635Z,96991.97
2022-08-05T10:38:28.799Z,96987.38
2022-08-05T10:41:23.506Z,96995.59
2022-08-05T10:44:11.670Z,96999.78
2022-08-05T10:46:54.346Z,96991.59
2022-08-05T10:49:27.388Z,96991.28
2022-08-05T10:52:05.105Z,96981.47
2022-08-05T10:55:02.217Z,96985.16
2022-08-05T10:57:33.715Z,96978.66
2022-08-05T11:00:19.632Z,96969.78
2022-08-05T11:03:23.004Z,96970.06
2022-08-05T11:06:16.114Z,96969.03
2022-08-05T11:09:32.453Z,96966.72
2022-08-05T11:12:27.197Z,96967.56
2022-08-05T11:15:19.186Z,96958.28
2022-08-05T11:17:57.171Z,96955.38
2022-08-05T11:20:34.606Z,96959.63
2022-08-05T11:23:33.264Z,96952.50
2022-08-05T11:26:04.556Z,96954.16
2022-08-05T11:28:36.330Z,96942.91
2022-08-05T11:31:06.608Z,96944.22
2022-08-05T11:33:46.626Z,96935.69
2022-08-05T11:36:34.191Z,96929.69
2022-08-05T11:39:09.563Z,96942.41
2022-08-05T11:42:01.284Z,96935.09
2022-08-05T11:44:52.754Z,96944.13
2022-08-05T11:47:49.763Z,96935.06
2022-08-05T11:50:10.024Z,96939.94
2022-08-05T11:52:44.067Z,96930.56
2022-08-05T11:55:14.747Z,96922.22
2022-08-05T11:58:10.254Z,96928.88
2022-08-05T12:00:38.382Z,96925.66
2022-08-05T12:03:28.797Z,96919.88
2022-08-05T12:06:06.226Z,96912.91
2022-08-05T12:08:57.223Z,96919.03
2022-08-05T12:11:28.377Z,96920.03
2022-08-05T12:14:11.461Z,96921.00
2022-08-05T12:16:45.452Z,96908.13
2022-08-05T12:20:25.960Z,96909.28
2022-08-05T12:22:05.647Z,96917.00
2022-08-05T12:24:40.818Z,96906.03
2022-08-05T12:27:25.300Z,96900.59
2022-08-05T12:30:01.189Z,96895.75
2022-08-05T12:32:35.693Z,96904.53
2022-08-05T12:35:07.852Z,96895.13
2022-08-05T12:37:35.864Z,96889.69
2022-08-05T12:40:10.927Z,96898.03
2022-08-05T12:42:39.336Z,96898.22
2022-08-05T12:45:09.627Z,96895.19
2022-08-05T12:47:37.809Z,96887.56
2022-08-05T12:50:15.526Z,96889.41
2022-08-05T12:52:55.193Z,96890.63
2022-08-05T12:55:28.331Z,96897.88
2022-08-05T12:58:52.495Z,96887.94
2022-08-05T13:02:03.462Z,96894.91
2022-08-05T13:03:41.413Z,96893.16
2022-08-05T13:06:17.517Z,96879.19
2022-08-05T13:08:51.762Z,96885.28
2022-08-05T13:11:59.882Z,96889.91
2022-08-05T13:14:36.107Z,96880.47
2022-08-05T13:17:09.303Z,96884.81
2022-08-05T13:19:51.590Z,96879.22
2022-08-05T13:22:29.663Z,96870.47
2022-08-05T13:25:00.804Z,96872.16
2022-08-05T13:28:00.511Z,96866.44
2022-08-05T13:30:33.862Z,96873.09
2022-08-05T13:33:03.298Z,96874.41
2022-08-05T13:35:43.143Z,96867.31
2022-08-05T13:38:28.509Z,96865.50
2022-08-05T13:41:00.068Z,96864.56
2022-08-05T13:43:44.821Z,96864.19
2022-08-05T13:46:16.195Z,96866.50
2022-08-05T13:48:58.358Z,96864.63
2022-08-05T13:51:40.307Z,96861.41
2022-08-05T13:54:12.646Z,96865.50
2022-08-05T13:56:45.014Z,96860.63
2022-08-05T13:59:24.603Z,96853.63
2022-08-05T14:01:57.874Z,96848.94
2022-08-05T14:04:51.424Z,96848.72
2022-08-05T14:07:56.852Z,96854.31
2022-08-05T14:10:10.785Z,96854.59
2022-08-05T14:12:38.648Z,96849.09
2022-08-05T14:16:07.675Z,96864.88
2022-08-05T14:17:59.666Z,96852.94
2022-08-05T14:20:31.302Z,96852.81
2022-08-05T14:22:59.374Z,96845.41
2022-08-05T14:25:27.987Z,96847.34
2022-08-05T14:27:56.458Z,96846.19
2022-08-05T14:30:27.855Z,96842.81
2022-08-05T14:32:56.772Z,96844.56
2022-08-05T14:35:37.455Z,96843.16
2022-08-05T14:38:32.457Z,96844.69
2022-08-05T14:41:00.345Z,96847.00
2022-08-05T14:43:57.798Z,96842.63
2022-08-05T14:46:15.625Z,96847.59
2022-08-05T14:48:43.602Z,96839.00
2022-08-05T14:51:17.989Z,96828.38
2022-08-05T14:53:46.211Z,96831.88
2022-08-05T14:56:34.329Z,96830.81
2022-08-05T14:59:06.617Z,96825.00
2022-08-05T15:01:48.703Z,96827.19
2022-08-05T15:04:22.182Z,96820.19
2022-08-05T15:06:50.884Z,96819.22
2022-08-05T15:09:52.724Z,96819.72
2022-08-05T15:12:09.001Z,96826.47
2022-08-05T15:14:48.373Z,96816.38
2022-08-05T15:17:47.339Z,96825.69
2022-08-05T15:20:17.033Z,96831.03
2022-08-05T15:22:53.987Z,96822.84
2022-08-05T15:25:51.133Z,96834.28
2022-08-05T15:28:14.253Z,96829.75
2022-08-05T15:30:43.844Z,96828.16
2022-08-05T15:33:56.885Z,96825.81
2022-08-05T15:36:05.302Z,96834.34
2022-08-05T15:38:40.866Z,96832.09
2022-08-05T15:41:22.917Z,96835.75
2022-08-05T15:43:54.940Z,96831.72
2022-08-05T15:46:24.137Z,96832.84
2022-08-05T15:49:01.048Z,96839.13
2022-08-05T15:52:10.178Z,96837.78
2022-08-05T15:54:34.748Z,96829.09
2022-08-05T15:57:07.324Z,96832.78
2022-08-05T15:59:36.490Z,96841.75
2022-08-05T16:02:09.756Z,96830.38
2022-08-05T16:04:54.813Z,96832.28
2022-08-05T16:07:22.845Z,96831.00
2022-08-05T16:09:51.059Z,96835.16
2022-08-05T16:12:21.830Z,96834.97
2022-08-05T16:14:49.539Z,96830.66
2022-08-05T16:17:17.172Z,96836.50
2022-08-05T16:20:04.269Z,96840.94
2022-08-05T16:22:34.400Z,96837.59
2022-08-05T16:25:09.602Z,96836.78
2022-08-05T16:28:00.293Z,96835.97
2022-08-05T16:30:28.716Z,96839.63
2022-08-05T16:32:58.046Z,96833.81
2022-08-05T16:35:28.494Z,96838.06
2022-08-05T16:38:15.212Z,96829.47
2022-08-05T16:40:52.127Z,96839.84
2022-08-05T16:43:28.894Z,96834.81
2022-08-05T16:46:07.313Z,96838.78
2022-08-05T16:48:44.418Z,96842.94
2022-08-05T16:51:12.301Z,96845.00
2022-08-05T16:54:05.932Z,96851.69
2022-08-05T16:56:29.501Z,96848.03
2022-08-05T16:58:57.967Z,96846.59
2022-08-05T17:01:25.951Z,96854.56
2022-08-05T17:03:53.712Z,96851.84
2022-08-05T17:06:24.639Z,96850.91
2022-08-05T17:08:54.371Z,96858.69
2022-08-05T17:11:23.309Z,96862.50
2022-08-05T17:14:00.144Z,96866.28
2022-08-05T17:16:36.561Z,96868.63
2022-08-05T17:19:09.703Z,96872.75
2022-08-05T17:21:39.723Z,96870.38
2022-08-05T17:24:28.038Z,96869.88
2022-08-05T17:26:57.857Z,96864.75
2022-08-05T17:29:33.698Z,96868.72
2022-08-05T17:32:16.712Z,96869.97
2022-08-05T17:34:46.209Z,96871.50
2022-08-05T17:37:40.293Z,96874.91
2022-08-05T17:40:10.123Z,96872.94
2022-08-05T17:42:41.664Z,96876.69
2022-08-05T17:45:21.836Z,96869.28
2022-08-05T17:47:55.435Z,96873.38
2022-08-05T17:50:30.141Z,96869.84
2022-08-05T17:52:59.530Z,96883.44
2022-08-05T17:55:38.425Z,96873.91
2022-08-05T17:58:09.889Z,96881.03
2022-08-05T18:00:44.519Z,96873.28
2022-08-05T18:03:28.105Z,96872.84
2022-08-05T18:06:06.169Z,96875.13
2022-08-05T18:08:44.901Z,96870.47
2022-08-05T18:11:24.052Z,96868.84
2022-08-05T18:13:57.537Z,96871.47
2022-08-05T18:16:27.509Z,96866.91
2022-08-05T18:18:55.184Z,96874.28
2022-08-05T18:21:26.182Z,96864.13
2022-08-05T18:23:55.632Z,96871.38
2022-08-05T18:26:27.454Z,96870.22
2022-08-05T18:28:56.672Z,96872.09
2022-08-05T18:31:24.343Z,96873.78
2022-08-05T18:33:52.684Z,96882.44
2022-08-05T18:36:20.357Z,96884.25
2022-08-05T18:38:56.181Z,96882.16
2022-08-05T18:41:56.093Z,96880.25
2022-08-05T18:44:12.853Z,96887.44
2022-08-05T18:46:41.062Z,96885.63
2022-08-05T18:49:30.760Z,96887.63
2022-08-05T18:52:35.745Z,96886.63
2022-08-05T18:55:05.520Z,96883.91
2022-08-05T18:57:43.024Z,96884.06
2022-08-05T19:00:20.429Z,96891.09
2022-08-05T19:02:48.802Z,96884.28
2022-08-05T19:06:05.762Z,96882.69
2022-08-05T19:08:12.294Z,96883.31
2022-08-05T19:10:44.397Z,96876.59
2022-08-05T19:13:15.884Z,96874.38
